Bookmark and Share
Track history (hours):
 

Blake Denton

More information available from US FCC via Universal Licensing System and Coast Guard Vessel Documentation Center.

Last reported at 2014-Apr-06 20:27 UTC. Time now 2014-Apr-21 04:47 UTC.
Position N 29°60' W 090°50'.
Warning: this ship's position is 14 days out of date.

Length 52 m.

Type: Towing. MMSI: 367072210.

NotesDate/timePositionNaut miles runAvg speedWind from/ knotsBaromVisibWave heightAir tempDewpointWater temp
2014-Apr-06 20:27N 29°60' W 090°50'1 0.1
2014-Apr-06 14:28N 29°59' W 090°49'0 0.1
2014-Apr-06 13:30N 29°59' W 090°49'4 4.2
2014-Apr-06 12:33N 30°01' W 090°45'5 4.7
2014-Apr-06 11:33N 30°03' W 090°40'4 4.1
2014-Apr-06 10:33N 30°03' W 090°36'4 3.6
2014-Apr-06 09:33N 30°03' W 090°31'0 0.0
2014-Apr-06 08:33N 30°03' W 090°31'0 0.0
2014-Apr-06 07:33N 30°03' W 090°31'0 0.0
2014-Apr-06 06:33N 30°03' W 090°31'0 0.1
2014-Apr-06 05:33N 30°03' W 090°32'0 0.1
2014-Apr-06 04:33N 30°03' W 090°31'0 0.0
2014-Apr-06 03:33N 30°03' W 090°31'0 0.0
2014-Apr-06 02:33N 30°03' W 090°31'0 0.0
2014-Apr-06 01:33N 30°03' W 090°31'0 0.0
2014-Apr-06 00:33N 30°03' W 090°31'0 0.0
2014-Apr-05 23:33N 30°03' W 090°31'0 0.0
2014-Apr-05 22:33N 30°03' W 090°31'2 2.2
2014-Apr-05 21:33N 30°03' W 090°29'0 0.0
2014-Apr-05 20:33N 30°03' W 090°29'0 0.0
2014-Apr-05 19:33N 30°03' W 090°29'0 0.0
2014-Apr-05 18:33N 30°03' W 090°29'0 0.0
2014-Apr-05 17:34N 30°03' W 090°29'0 0.0
2014-Apr-05 16:33N 30°03' W 090°29'0 0.0
2014-Apr-05 15:33N 30°03' W 090°29'11 1.8
2014-Apr-05 09:30N 29°56' W 090°19'0 0.0
2014-Apr-05 08:13N 29°56' W 090°19'0 0.0
2014-Apr-05 07:24N 29°56' W 090°19'0 0.0
2014-Apr-05 05:18N 29°56' W 090°20'0 0.0
2014-Apr-05 03:32N 29°56' W 090°20'0 0.1
2014-Apr-05 02:23N 29°56' W 090°19'0 0.0
2014-Apr-05 01:33N 29°56' W 090°19'0 0.0
2014-Apr-05 00:34N 29°56' W 090°19'7 6.9
2014-Apr-04 23:33N 29°60' W 090°26'7 7.2
2014-Apr-04 22:33N 30°03' W 090°34'14 4.2
2014-Apr-04 19:14N 29°59' W 090°49'19 2.1
2014-Apr-04 10:07N 30°13' W 091°04'  

Dump ship's entire track history

sailing weather and tide predictions

Blake Denton — WDC7496 — position and weather